PWSweather.com
Personal Weather Stations
Station Observations
KVTSWANT6
Maquam ShoreCamp Maquam, Swanton, VT 05488

Maquam ShoreCamp MaquamSwanton, VT 05488

Lat: 44.90250015, Lon: -73.16666412

Elevation: 109

Station Type: W-1090

Latest ConditionsUpdated 7:10:00 PM EDT Thursday, Oct 30, 2014
Currently Today's Max Today's Min Today's Average
Temperature 46.9°F8.3°C 53.4°F11.9°C 45.5°F7.5°C 48.7°F9.3°C
Dew Point 38.0°F3.3°C 45.9°F7.7°C 37.3°F2.9°C 41.8°F5.4°C
Winds 6.9 mph NW11.1 kmh NW 13.0 mph N20.9 kmh N - 7.8 mph 12.6 kmh
Wind Gusts 10.7 mph17.2 kmh 19.7 mph31.7 kmh - -
Humidity 71% 88% 65% 77%
Pressure 29.98 in1015.2 mb 29.98 in1015.2 mb 29.59 in1002.0 mb -
Hour Temp Dew Point Humidity Winds Wind Gusts Pressure Precip Precip Rate Daily Precip Total
07:10 PM 46.9°F8.3°C 38.0°F3.3°C 71% 6.9 mph NW11.1 kmh NW 10.7 mph17.2 kmh 29.98 in1015.2 mb 0.00 in0.0 mm 0.00 in/hr0.0 mm/hr 0.00 in0.0 mm
07:00 PM 46.9°F8.3°C 38.4°F3.6°C 72% 6.0 mph NW9.7 kmh NW 9.2 mph14.8 kmh 29.98 in1015.2 mb 0.00 in0.0 mm 0.00 in/hr0.0 mm/hr 0.00 in0.0 mm
06:50 PM 46.9°F8.3°C 38.4°F3.6°C 72% 5.4 mph WNW8.7 kmh WNW 11.4 mph18.3 kmh 29.98 in1015.2 mb 0.00 in0.0 mm 0.00 in/hr0.0 mm/hr 0.00 in0.0 mm
06:40 PM 46.9°F8.3°C 38.0°F3.3°C 71% 6.0 mph W9.7 kmh W 11.4 mph18.3 kmh 29.98 in1015.2 mb 0.00 in0.0 mm 0.00 in/hr0.0 mm/hr 0.00 in0.0 mm
06:30 PM 47.1°F8.4°C 38.9°F3.8°C 73% 5.4 mph W8.7 kmh W 10.7 mph17.2 kmh 29.98 in1015.2 mb 0.00 in0.0 mm 0.00 in/hr0.0 mm/hr 0.00 in0.0 mm
06:20 PM 46.9°F8.3°C 37.3°F2.9°C 69% 4.5 mph WNW7.2 kmh WNW 10.7 mph17.2 kmh 29.98 in1015.2 mb 0.00 in0.0 mm 0.00 in/hr0.0 mm/hr 0.00 in0.0 mm
06:10 PM 47.1°F8.4°C 38.6°F3.7°C 72% 6.9 mph WNW11.1 kmh WNW 10.7 mph17.2 kmh 29.97 in1014.9 mb 0.00 in0.0 mm 0.00 in/hr0.0 mm/hr 0.00 in0.0 mm
06:00 PM 47.1°F8.4°C 38.6°F3.7°C 72% 6.9 mph W11.1 kmh W 13.0 mph20.9 kmh 29.97 in1014.9 mb 0.00 in0.0 mm 0.00 in/hr0.0 mm/hr 0.00 in0.0 mm
05:50 PM 47.3°F8.5°C 37.7°F3.2°C 69% 8.3 mph WNW13.4 kmh WNW 13.0 mph20.9 kmh 29.97 in1014.9 mb 0.00 in0.0 mm 0.00 in/hr0.0 mm/hr 0.00 in0.0 mm
05:40 PM 47.3°F8.5°C 39.1°F3.9°C 73% 6.9 mph WNW11.1 kmh WNW 13.6 mph21.9 kmh 29.96 in1014.6 mb 0.00 in0.0 mm 0.00 in/hr0.0 mm/hr 0.00 in0.0 mm
05:30 PM 47.3°F8.5°C 38.4°F3.6°C 71% 6.9 mph W11.1 kmh W 11.4 mph18.3 kmh 29.96 in1014.6 mb 0.00 in0.0 mm 0.00 in/hr0.0 mm/hr 0.00 in0.0 mm
05:20 PM 47.3°F8.5°C 38.4°F3.6°C 71% 8.3 mph W13.4 kmh W 14.5 mph23.3 kmh 29.96 in1014.6 mb 0.00 in0.0 mm 0.00 in/hr0.0 mm/hr 0.00 in0.0 mm
05:10 PM 47.5°F8.6°C 38.6°F3.7°C 71% 8.3 mph WNW13.4 kmh WNW 13.6 mph21.9 kmh 29.95 in1014.2 mb 0.00 in0.0 mm 0.00 in/hr0.0 mm/hr 0.00 in0.0 mm
05:00 PM 47.7°F8.7°C 39.4°F4.1°C 73% 7.6 mph NW12.2 kmh NW 11.4 mph18.3 kmh 29.95 in1014.2 mb 0.00 in0.0 mm 0.00 in/hr0.0 mm/hr 0.00 in0.0 mm
04:50 PM 47.5°F8.6°C 38.6°F3.7°C 71% 8.3 mph NW13.4 kmh NW 12.1 mph19.5 kmh 29.95 in1014.2 mb 0.00 in0.0 mm 0.00 in/hr0.0 mm/hr 0.00 in0.0 mm
04:40 PM 47.7°F8.7°C 38.7°F3.7°C 71% 9.8 mph NW15.8 kmh NW 12.1 mph19.5 kmh 29.95 in1014.2 mb 0.00 in0.0 mm 0.00 in/hr0.0 mm/hr 0.00 in0.0 mm
04:30 PM 48.4°F9.1°C 39.4°F4.1°C 71% 8.3 mph NW13.4 kmh NW 13.6 mph21.9 kmh 29.95 in1014.2 mb 0.00 in0.0 mm 0.00 in/hr0.0 mm/hr 0.00 in0.0 mm
04:20 PM 50.4°F10.2°C 39.1°F3.9°C 65% 9.8 mph WNW15.8 kmh WNW 13.6 mph21.9 kmh 29.95 in1014.2 mb 0.00 in0.0 mm 0.00 in/hr0.0 mm/hr 0.00 in0.0 mm
04:10 PM 50.2°F10.1°C 40.4°F4.7°C 69% 6.0 mph NW9.7 kmh NW 12.1 mph19.5 kmh 29.95 in1014.2 mb 0.00 in0.0 mm 0.00 in/hr0.0 mm/hr 0.00 in0.0 mm
04:00 PM 48.7°F9.3°C 39.4°F4.1°C 70% 6.9 mph NW11.1 kmh NW 12.1 mph19.5 kmh 29.94 in1013.9 mb 0.00 in0.0 mm 0.00 in/hr0.0 mm/hr 0.00 in0.0 mm
03:50 PM 48.4°F9.1°C 39.4°F4.1°C 71% 9.8 mph NW15.8 kmh NW 13.6 mph21.9 kmh 29.94 in1013.9 mb 0.00 in0.0 mm 0.00 in/hr0.0 mm/hr 0.00 in0.0 mm
03:40 PM 48.4°F9.1°C 38.7°F3.7°C 69% 9.2 mph NNW14.8 kmh NNW 12.1 mph19.5 kmh 29.94 in1013.9 mb 0.00 in0.0 mm 0.00 in/hr0.0 mm/hr 0.00 in0.0 mm
03:30 PM 48.4°F9.1°C 38.7°F3.7°C 69% 9.2 mph NW14.8 kmh NW 13.0 mph20.9 kmh 29.94 in1013.9 mb 0.00 in0.0 mm 0.00 in/hr0.0 mm/hr 0.00 in0.0 mm
03:20 PM 48.4°F9.1°C 40.1°F4.5°C 73% 8.3 mph NW13.4 kmh NW 13.6 mph21.9 kmh 29.94 in1013.9 mb 0.00 in0.0 mm 0.00 in/hr0.0 mm/hr 0.00 in0.0 mm
03:10 PM 48.4°F9.1°C 39.1°F3.9°C 70% 9.8 mph NW15.8 kmh NW 13.0 mph20.9 kmh 29.94 in1013.9 mb 0.00 in0.0 mm 0.00 in/hr0.0 mm/hr 0.00 in0.0 mm
03:00 PM 48.7°F9.3°C 39.0°F3.9°C 69% 8.3 mph NW13.4 kmh NW 13.0 mph20.9 kmh 29.93 in1013.5 mb 0.00 in0.0 mm 0.00 in/hr0.0 mm/hr 0.00 in0.0 mm
02:50 PM 48.9°F9.4°C 39.2°F4.0°C 69% 8.3 mph NW13.4 kmh NW 13.0 mph20.9 kmh 29.93 in1013.5 mb 0.00 in0.0 mm 0.00 in/hr0.0 mm/hr 0.00 in0.0 mm
02:40 PM 48.9°F9.4°C 39.6°F4.2°C 70% 7.6 mph NW12.2 kmh NW 11.4 mph18.3 kmh 29.93 in1013.5 mb 0.00 in0.0 mm 0.00 in/hr0.0 mm/hr 0.00 in0.0 mm
02:30 PM 50.0°F10.0°C 41.3°F5.2°C 72% 8.3 mph NW13.4 kmh NW 13.0 mph20.9 kmh 29.93 in1013.5 mb 0.00 in0.0 mm 0.00 in/hr0.0 mm/hr 0.00 in0.0 mm
02:20 PM 49.5°F9.7°C 39.0°F3.9°C 67% 7.6 mph NW12.2 kmh NW 12.1 mph19.5 kmh 29.93 in1013.5 mb 0.00 in0.0 mm 0.00 in/hr0.0 mm/hr 0.00 in0.0 mm
02:10 PM 49.8°F9.9°C 40.1°F4.5°C 69% 7.6 mph NW12.2 kmh NW 10.7 mph17.2 kmh 29.93 in1013.5 mb 0.00 in0.0 mm 0.00 in/hr0.0 mm/hr 0.00 in0.0 mm
02:00 PM 48.7°F9.3°C 39.4°F4.1°C 70% 7.6 mph NNW12.2 kmh NNW 15.2 mph24.5 kmh 29.93 in1013.5 mb 0.00 in0.0 mm 0.00 in/hr0.0 mm/hr 0.00 in0.0 mm
01:50 PM 49.1°F9.5°C 40.1°F4.5°C 71% 6.0 mph NW9.7 kmh NW 10.7 mph17.2 kmh 29.93 in1013.5 mb 0.00 in0.0 mm 0.00 in/hr0.0 mm/hr 0.00 in0.0 mm
01:40 PM 48.6°F9.2°C 38.9°F3.8°C 69% 5.4 mph NW8.7 kmh NW 11.4 mph18.3 kmh 29.93 in1013.5 mb 0.00 in0.0 mm 0.00 in/hr0.0 mm/hr 0.00 in0.0 mm
01:30 PM 48.0°F8.9°C 39.4°F4.1°C 72% 8.3 mph NNW13.4 kmh NNW 13.0 mph20.9 kmh 29.93 in1013.5 mb 0.00 in0.0 mm 0.00 in/hr0.0 mm/hr 0.00 in0.0 mm
01:20 PM 47.7°F8.7°C 38.7°F3.7°C 71% 8.3 mph NNW13.4 kmh NNW 11.4 mph18.3 kmh 29.93 in1013.5 mb 0.00 in0.0 mm 0.00 in/hr0.0 mm/hr 0.00 in0.0 mm
01:10 PM 47.7°F8.7°C 39.8°F4.3°C 74% 6.9 mph NW11.1 kmh NW 9.8 mph15.8 kmh 29.94 in1013.9 mb 0.00 in0.0 mm 0.00 in/hr0.0 mm/hr 0.00 in0.0 mm
01:00 PM 47.5°F8.6°C 40.0°F4.4°C 75% 3.1 mph NW5.0 kmh NW 9.8 mph15.8 kmh 29.94 in1013.9 mb 0.00 in0.0 mm 0.00 in/hr0.0 mm/hr 0.00 in0.0 mm
12:50 PM 47.3°F8.5°C 40.1°F4.5°C 76% 6.9 mph NW11.1 kmh NW 10.7 mph17.2 kmh 29.94 in1013.9 mb 0.00 in0.0 mm 0.00 in/hr0.0 mm/hr 0.00 in0.0 mm
12:40 PM 47.3°F8.5°C 39.1°F3.9°C 73% 3.8 mph NW6.1 kmh NW 9.8 mph15.8 kmh 29.94 in1013.9 mb 0.00 in0.0 mm 0.00 in/hr0.0 mm/hr 0.00 in0.0 mm
12:30 PM 46.6°F8.1°C 38.7°F3.7°C 74% 5.4 mph NW8.7 kmh NW 8.3 mph13.4 kmh 29.94 in1013.9 mb 0.00 in0.0 mm 0.00 in/hr0.0 mm/hr 0.00 in0.0 mm
12:20 PM 46.4°F8.0°C 38.9°F3.8°C 75% 6.0 mph NW9.7 kmh NW 9.8 mph15.8 kmh 29.94 in1013.9 mb 0.00 in0.0 mm 0.00 in/hr0.0 mm/hr 0.00 in0.0 mm
12:10 PM 46.2°F7.9°C 39.1°F3.9°C 76% 6.0 mph NNW9.7 kmh NNW 13.0 mph20.9 kmh 29.94 in1013.9 mb 0.00 in0.0 mm 0.00 in/hr0.0 mm/hr 0.00 in0.0 mm
12:00 PM 46.2°F7.9°C 39.7°F4.3°C 78% 6.9 mph NNW11.1 kmh NNW 10.7 mph17.2 kmh 29.94 in1013.9 mb 0.00 in0.0 mm 0.00 in/hr0.0 mm/hr 0.00 in0.0 mm
11:50 AM 45.9°F7.7°C 39.4°F4.1°C 78% 5.4 mph NW8.7 kmh NW 10.7 mph17.2 kmh 29.94 in1013.9 mb 0.00 in0.0 mm 0.00 in/hr0.0 mm/hr 0.00 in0.0 mm
11:40 AM 45.9°F7.7°C 39.4°F4.1°C 78% 6.9 mph NW11.1 kmh NW 9.8 mph15.8 kmh 29.95 in1014.2 mb 0.00 in0.0 mm 0.00 in/hr0.0 mm/hr 0.00 in0.0 mm
11:30 AM 45.7°F7.6°C 39.5°F4.2°C 79% 6.9 mph NW11.1 kmh NW 10.7 mph17.2 kmh 29.95 in1014.2 mb 0.00 in0.0 mm 0.00 in/hr0.0 mm/hr 0.00 in0.0 mm
11:20 AM 45.7°F7.6°C 39.5°F4.2°C 79% 5.4 mph WNW8.7 kmh WNW 12.1 mph19.5 kmh 29.95 in1014.2 mb 0.00 in0.0 mm 0.00 in/hr0.0 mm/hr 0.00 in0.0 mm
11:10 AM 45.9°F7.7°C 40.0°F4.4°C 80% 6.9 mph NW11.1 kmh NW 10.7 mph17.2 kmh 29.95 in1014.2 mb 0.00 in0.0 mm 0.00 in/hr0.0 mm/hr 0.00 in0.0 mm
11:00 AM 45.5°F7.5°C 39.7°F4.3°C 80% 7.6 mph NW12.2 kmh NW 13.0 mph20.9 kmh 29.95 in1014.2 mb 0.00 in0.0 mm 0.00 in/hr0.0 mm/hr 0.00 in0.0 mm
10:50 AM 45.7°F7.6°C 39.9°F4.4°C 80% 9.2 mph NW14.8 kmh NW 13.0 mph20.9 kmh 29.95 in1014.2 mb 0.00 in0.0 mm 0.00 in/hr0.0 mm/hr 0.00 in0.0 mm
10:40 AM 45.7°F7.6°C 39.5°F4.2°C 79% 10.7 mph NW17.2 kmh NW 13.0 mph20.9 kmh 29.95 in1014.2 mb 0.00 in0.0 mm 0.00 in/hr0.0 mm/hr 0.00 in0.0 mm
10:30 AM 45.5°F7.5°C 39.7°F4.3°C 80% 5.4 mph WNW8.7 kmh WNW 11.4 mph18.3 kmh 29.94 in1013.9 mb 0.00 in0.0 mm 0.00 in/hr0.0 mm/hr 0.00 in0.0 mm
10:20 AM 45.5°F7.5°C 40.0°F4.4°C 81% 7.6 mph NW12.2 kmh NW 13.0 mph20.9 kmh 29.94 in1013.9 mb 0.00 in0.0 mm 0.00 in/hr0.0 mm/hr 0.00 in0.0 mm
10:10 AM 45.9°F7.7°C 40.7°F4.8°C 82% 6.0 mph WNW9.7 kmh WNW 11.4 mph18.3 kmh 29.94 in1013.9 mb 0.00 in0.0 mm 0.00 in/hr0.0 mm/hr 0.00 in0.0 mm
10:00 AM 45.7°F7.6°C 40.5°F4.7°C 82% 7.6 mph WNW12.2 kmh WNW 13.0 mph20.9 kmh 29.94 in1013.9 mb 0.00 in0.0 mm 0.00 in/hr0.0 mm/hr 0.00 in0.0 mm
09:50 AM 45.7°F7.6°C 40.2°F4.6°C 81% 9.2 mph NW14.8 kmh NW 14.5 mph23.3 kmh 29.94 in1013.9 mb 0.00 in0.0 mm 0.00 in/hr0.0 mm/hr 0.00 in0.0 mm
09:40 AM 46.0°F7.8°C 41.5°F5.3°C 84% 10.7 mph NW17.2 kmh NW 14.5 mph23.3 kmh 29.94 in1013.9 mb 0.00 in0.0 mm 0.00 in/hr0.0 mm/hr 0.00 in0.0 mm
09:30 AM 46.0°F7.8°C 41.8°F5.4°C 85% 6.9 mph NW11.1 kmh NW 10.7 mph17.2 kmh 29.93 in1013.5 mb 0.00 in0.0 mm 0.00 in/hr0.0 mm/hr 0.00 in0.0 mm
09:20 AM 45.9°F7.7°C 40.7°F4.8°C 82% 7.6 mph NW12.2 kmh NW 13.6 mph21.9 kmh 29.94 in1013.9 mb 0.00 in0.0 mm 0.00 in/hr0.0 mm/hr 0.00 in0.0 mm
09:10 AM 46.2°F7.9°C 41.0°F5.0°C 82% 6.0 mph NW9.7 kmh NW 11.4 mph18.3 kmh 29.93 in1013.5 mb 0.00 in0.0 mm 0.00 in/hr0.0 mm/hr 0.00 in0.0 mm
09:00 AM 46.4°F8.0°C 41.2°F5.1°C 82% 7.6 mph NNW12.2 kmh NNW 10.7 mph17.2 kmh 29.93 in1013.5 mb 0.00 in0.0 mm 0.00 in/hr0.0 mm/hr 0.00 in0.0 mm
08:50 AM 46.2°F7.9°C 41.3°F5.2°C 83% 6.9 mph NNW11.1 kmh NNW 10.7 mph17.2 kmh 29.93 in1013.5 mb 0.00 in0.0 mm 0.00 in/hr0.0 mm/hr 0.00 in0.0 mm
08:48 AM 53.4°F11.9°C 45.7°F7.6°C 75% 9.2 mph W14.8 kmh W 13.0 mph20.9 kmh 29.81 in1009.5 mb 0.00 in0.0 mm 0.00 in/hr0.0 mm/hr 0.00 in0.0 mm
08:40 AM 46.0°F7.8°C 41.2°F5.1°C 83% 7.6 mph NNW12.2 kmh NNW 12.1 mph19.5 kmh 29.92 in1013.2 mb 0.00 in0.0 mm 0.00 in/hr0.0 mm/hr 0.00 in0.0 mm
08:37 AM 53.1°F11.7°C 45.3°F7.4°C 75% 10.7 mph SW17.2 kmh SW 12.1 mph19.5 kmh 29.80 in1009.1 mb 0.00 in0.0 mm 0.00 in/hr0.0 mm/hr 0.00 in0.0 mm
08:10 AM 46.6°F8.1°C 42.0°F5.6°C 84% 10.7 mph NNW17.2 kmh NNW 15.9 mph25.6 kmh 29.70 in1005.8 mb 0.00 in0.0 mm 0.00 in/hr0.0 mm/hr 0.00 in0.0 mm
08:00 AM 46.8°F8.2°C 42.2°F5.7°C 84% 11.4 mph N18.3 kmh N 16.8 mph27.0 kmh 29.70 in1005.8 mb 0.00 in0.0 mm 0.00 in/hr0.0 mm/hr 0.00 in0.0 mm
07:50 AM 46.9°F8.3°C 42.1°F5.6°C 83% 13.0 mph N20.9 kmh N 19.7 mph31.7 kmh 29.69 in1005.4 mb 0.00 in0.0 mm 0.00 in/hr0.0 mm/hr 0.00 in0.0 mm
07:40 AM 47.1°F8.4°C 42.8°F6.0°C 85% 11.4 mph NNW18.3 kmh NNW 15.2 mph24.5 kmh 29.69 in1005.4 mb 0.00 in0.0 mm 0.00 in/hr0.0 mm/hr 0.00 in0.0 mm
07:30 AM 47.3°F8.5°C 43.3°F6.3°C 86% 9.8 mph NW15.8 kmh NW 14.5 mph23.3 kmh 29.68 in1005.1 mb 0.00 in0.0 mm 0.00 in/hr0.0 mm/hr 0.00 in0.0 mm
07:20 AM 47.5°F8.6°C 43.2°F6.2°C 85% 12.1 mph NW19.5 kmh NW 15.9 mph25.6 kmh 29.68 in1005.1 mb 0.00 in0.0 mm 0.00 in/hr0.0 mm/hr 0.00 in0.0 mm
07:10 AM 47.7°F8.7°C 44.0°F6.7°C 87% 10.7 mph NW17.2 kmh NW 15.2 mph24.5 kmh 29.68 in1005.1 mb 0.00 in0.0 mm 0.00 in/hr0.0 mm/hr 0.00 in0.0 mm
07:00 AM 47.8°F8.8°C 43.9°F6.6°C 86% 10.7 mph NW17.2 kmh NW 13.6 mph21.9 kmh 29.67 in1004.7 mb 0.00 in0.0 mm 0.00 in/hr0.0 mm/hr 0.00 in0.0 mm
06:50 AM 48.2°F9.0°C 43.9°F6.6°C 85% 10.7 mph NNW17.2 kmh NNW 15.2 mph24.5 kmh 29.67 in1004.7 mb 0.00 in0.0 mm 0.00 in/hr0.0 mm/hr 0.00 in0.0 mm
06:40 AM 48.6°F9.2°C 44.9°F7.2°C 87% 11.4 mph NW18.3 kmh NW 15.9 mph25.6 kmh 29.66 in1004.4 mb 0.00 in0.0 mm 0.00 in/hr0.0 mm/hr 0.00 in0.0 mm
06:30 AM 48.7°F9.3°C 44.7°F7.1°C 86% 9.8 mph NW15.8 kmh NW 15.2 mph24.5 kmh 29.66 in1004.4 mb 0.00 in0.0 mm 0.00 in/hr0.0 mm/hr 0.00 in0.0 mm
06:20 AM 48.9°F9.4°C 44.6°F7.0°C 85% 10.7 mph NW17.2 kmh NW 15.2 mph24.5 kmh 29.65 in1004.1 mb 0.00 in0.0 mm 0.00 in/hr0.0 mm/hr 0.00 in0.0 mm
06:10 AM 49.1°F9.5°C 45.7°F7.6°C 88% 9.2 mph NW14.8 kmh NW 14.5 mph23.3 kmh 29.65 in1004.1 mb 0.00 in0.0 mm 0.00 in/hr0.0 mm/hr 0.00 in0.0 mm
06:00 AM 49.1°F9.5°C 44.8°F7.1°C 85% 7.6 mph NNW12.2 kmh NNW 12.1 mph19.5 kmh 29.65 in1004.1 mb 0.00 in0.0 mm 0.00 in/hr0.0 mm/hr 0.00 in0.0 mm
05:50 AM 49.5°F9.7°C 45.8°F7.7°C 87% 7.6 mph NW12.2 kmh NW 13.0 mph20.9 kmh 29.65 in1004.1 mb 0.00 in0.0 mm 0.00 in/hr0.0 mm/hr 0.00 in0.0 mm
05:40 AM 49.5°F9.7°C 45.1°F7.3°C 85% 6.0 mph NW9.7 kmh NW 10.7 mph17.2 kmh 29.64 in1003.7 mb 0.00 in0.0 mm 0.00 in/hr0.0 mm/hr 0.00 in0.0 mm
05:30 AM 49.5°F9.7°C 45.1°F7.3°C 85% 6.9 mph NW11.1 kmh NW 10.7 mph17.2 kmh 29.64 in1003.7 mb 0.00 in0.0 mm 0.00 in/hr0.0 mm/hr 0.00 in0.0 mm
05:20 AM 49.5°F9.7°C 44.8°F7.1°C 84% 6.9 mph NW11.1 kmh NW 10.7 mph17.2 kmh 29.64 in1003.7 mb 0.00 in0.0 mm 0.00 in/hr0.0 mm/hr 0.00 in0.0 mm
05:10 AM 49.8°F9.9°C 45.2°F7.3°C 84% 6.0 mph NW9.7 kmh NW 12.1 mph19.5 kmh 29.64 in1003.7 mb 0.00 in0.0 mm 0.00 in/hr0.0 mm/hr 0.00 in0.0 mm
05:00 AM 49.8°F9.9°C 44.9°F7.2°C 83% 9.2 mph NW14.8 kmh NW 11.4 mph18.3 kmh 29.63 in1003.4 mb 0.00 in0.0 mm 0.00 in/hr0.0 mm/hr 0.00 in0.0 mm
04:50 AM 50.0°F10.0°C 45.0°F7.2°C 83% 7.6 mph NW12.2 kmh NW 11.4 mph18.3 kmh 29.63 in1003.4 mb 0.00 in0.0 mm 0.00 in/hr0.0 mm/hr 0.00 in0.0 mm
04:40 AM 50.0°F10.0°C 45.4°F7.4°C 84% 6.0 mph NW9.7 kmh NW 12.1 mph19.5 kmh 29.62 in1003.0 mb 0.00 in0.0 mm 0.00 in/hr0.0 mm/hr 0.00 in0.0 mm
04:30 AM 50.2°F10.1°C 44.6°F7.0°C 81% 7.6 mph NW12.2 kmh NW 11.4 mph18.3 kmh 29.62 in1003.0 mb 0.00 in0.0 mm 0.00 in/hr0.0 mm/hr 0.00 in0.0 mm
04:20 AM 50.4°F10.2°C 45.1°F7.3°C 82% 7.6 mph NW12.2 kmh NW 11.4 mph18.3 kmh 29.62 in1003.0 mb 0.00 in0.0 mm 0.00 in/hr0.0 mm/hr 0.00 in0.0 mm
04:10 AM 50.5°F10.3°C 44.6°F7.0°C 80% 6.9 mph W11.1 kmh W 13.6 mph21.9 kmh 29.61 in1002.7 mb 0.00 in0.0 mm 0.00 in/hr0.0 mm/hr 0.00 in0.0 mm
04:00 AM 50.5°F10.3°C 44.9°F7.2°C 81% 8.3 mph W13.4 kmh W 12.1 mph19.5 kmh 29.61 in1002.7 mb 0.00 in0.0 mm 0.00 in/hr0.0 mm/hr 0.00 in0.0 mm
03:50 AM 50.7°F10.4°C 44.1°F6.7°C 78% 7.6 mph W12.2 kmh W 9.8 mph15.8 kmh 29.61 in1002.7 mb 0.00 in0.0 mm 0.00 in/hr0.0 mm/hr 0.00 in0.0 mm
03:40 AM 50.7°F10.4°C 44.5°F6.9°C 79% 4.5 mph WNW7.2 kmh WNW 10.7 mph17.2 kmh 29.61 in1002.7 mb 0.00 in0.0 mm 0.00 in/hr0.0 mm/hr 0.00 in0.0 mm
03:30 AM 50.7°F10.4°C 44.1°F6.7°C 78% 5.4 mph W8.7 kmh W 10.7 mph17.2 kmh 29.61 in1002.7 mb 0.00 in0.0 mm 0.00 in/hr0.0 mm/hr 0.00 in0.0 mm
03:20 AM 50.9°F10.5°C 45.0°F7.2°C 80% 6.0 mph WNW9.7 kmh WNW 10.7 mph17.2 kmh 29.61 in1002.7 mb 0.00 in0.0 mm 0.00 in/hr0.0 mm/hr 0.00 in0.0 mm
03:10 AM 51.1°F10.6°C 44.8°F7.1°C 79% 6.9 mph WNW11.1 kmh WNW 13.6 mph21.9 kmh 29.60 in1002.4 mb 0.00 in0.0 mm 0.00 in/hr0.0 mm/hr 0.00 in0.0 mm
03:00 AM 51.3°F10.7°C 45.0°F7.2°C 79% 7.6 mph NW12.2 kmh NW 11.4 mph18.3 kmh 29.61 in1002.7 mb 0.00 in0.0 mm 0.00 in/hr0.0 mm/hr 0.00 in0.0 mm
02:50 AM 51.3°F10.7°C 44.6°F7.0°C 78% 8.3 mph WNW13.4 kmh WNW 12.1 mph19.5 kmh 29.60 in1002.4 mb 0.00 in0.0 mm 0.00 in/hr0.0 mm/hr 0.00 in0.0 mm
02:40 AM 51.4°F10.8°C 45.5°F7.5°C 80% 6.0 mph W9.7 kmh W 13.6 mph21.9 kmh 29.60 in1002.4 mb 0.00 in0.0 mm 0.00 in/hr0.0 mm/hr 0.00 in0.0 mm
02:30 AM 51.6°F10.9°C 45.7°F7.6°C 80% 8.3 mph W13.4 kmh W 13.6 mph21.9 kmh 29.60 in1002.4 mb 0.00 in0.0 mm 0.00 in/hr0.0 mm/hr 0.00 in0.0 mm
02:20 AM 51.8°F11.0°C 45.5°F7.5°C 79% 8.3 mph W13.4 kmh W 15.2 mph24.5 kmh 29.60 in1002.4 mb 0.00 in0.0 mm 0.00 in/hr0.0 mm/hr 0.00 in0.0 mm
02:10 AM 51.8°F11.0°C 44.8°F7.1°C 77% 9.2 mph W14.8 kmh W 13.0 mph20.9 kmh 29.59 in1002.0 mb 0.00 in0.0 mm 0.00 in/hr0.0 mm/hr 0.00 in0.0 mm
02:00 AM 51.8°F11.0°C 44.5°F6.9°C 76% 8.3 mph NW13.4 kmh NW 13.0 mph20.9 kmh 29.60 in1002.4 mb 0.00 in0.0 mm 0.00 in/hr0.0 mm/hr 0.00 in0.0 mm
01:50 AM 51.8°F11.0°C 44.8°F7.1°C 77% 9.2 mph WSW14.8 kmh WSW 13.0 mph20.9 kmh 29.60 in1002.4 mb 0.00 in0.0 mm 0.00 in/hr0.0 mm/hr 0.00 in0.0 mm
01:40 AM 52.0°F11.1°C 44.7°F7.1°C 76% 8.3 mph WSW13.4 kmh WSW 11.4 mph18.3 kmh 29.60 in1002.4 mb 0.00 in0.0 mm 0.00 in/hr0.0 mm/hr 0.00 in0.0 mm
01:30 AM 52.0°F11.1°C 45.3°F7.4°C 78% 8.3 mph SW13.4 kmh SW 12.1 mph19.5 kmh 29.60 in1002.4 mb 0.00 in0.0 mm 0.00 in/hr0.0 mm/hr 0.00 in0.0 mm
01:20 AM 52.2°F11.2°C 45.5°F7.5°C 78% 9.2 mph SW14.8 kmh SW 13.0 mph20.9 kmh 29.60 in1002.4 mb 0.00 in0.0 mm 0.00 in/hr0.0 mm/hr 0.00 in0.0 mm
01:10 AM 52.0°F11.1°C 44.7°F7.1°C 76% 6.9 mph SW11.1 kmh SW 12.1 mph19.5 kmh 29.60 in1002.4 mb 0.00 in0.0 mm 0.00 in/hr0.0 mm/hr 0.00 in0.0 mm
01:00 AM 52.2°F11.2°C 44.8°F7.1°C 76% 7.6 mph SW12.2 kmh SW 10.7 mph17.2 kmh 29.60 in1002.4 mb 0.00 in0.0 mm 0.00 in/hr0.0 mm/hr 0.00 in0.0 mm
12:50 AM 52.2°F11.2°C 45.5°F7.5°C 78% 8.3 mph SW13.4 kmh SW 11.4 mph18.3 kmh 29.60 in1002.4 mb 0.00 in0.0 mm 0.00 in/hr0.0 mm/hr 0.00 in0.0 mm
12:40 AM 52.0°F11.1°C 44.3°F6.8°C 75% 5.4 mph SW8.7 kmh SW 11.4 mph18.3 kmh 29.59 in1002.0 mb 0.00 in0.0 mm 0.00 in/hr0.0 mm/hr 0.00 in0.0 mm
12:30 AM 52.2°F11.2°C 45.9°F7.7°C 79% 8.3 mph SW13.4 kmh SW 13.0 mph20.9 kmh 29.60 in1002.4 mb 0.00 in0.0 mm 0.00 in/hr0.0 mm/hr 0.00 in0.0 mm
12:20 AM 52.2°F11.2°C 44.8°F7.1°C 76% 8.3 mph SW13.4 kmh SW 12.1 mph19.5 kmh 29.60 in1002.4 mb 0.00 in0.0 mm 0.00 in/hr0.0 mm/hr 0.00 in0.0 mm
12:10 AM 52.2°F11.2°C 45.9°F7.7°C 79% 8.3 mph SW13.4 kmh SW 13.6 mph21.9 kmh 29.60 in1002.4 mb 0.00 in0.0 mm 0.00 in/hr0.0 mm/hr 0.00 in0.0 mm
12:00 AM 52.0°F11.1°C 45.7°F7.6°C 79% 9.8 mph SSW15.8 kmh SSW 12.1 mph19.5 kmh 29.59 in1002.0 mb 0.00 in0.0 mm 0.00 in/hr0.0 mm/hr 0.00 in0.0 mm